createdAt,value
2022-12-12T00:04:00.122Z,4.43
2022-12-12T00:08:57.380Z,4.28
2022-12-12T00:13:51.107Z,4.29
2022-12-12T00:18:46.385Z,5.38
2022-12-12T00:23:41.250Z,5.62
2022-12-12T00:28:35.201Z,5.50
2022-12-12T00:33:28.618Z,5.11
2022-12-12T00:38:24.502Z,5.53
2022-12-12T00:43:19.105Z,4.14
2022-12-12T00:48:12.511Z,5.23
2022-12-12T00:53:05.859Z,4.15
2022-12-12T00:57:59.071Z,4.17
2022-12-12T01:02:53.704Z,5.39
2022-12-12T01:07:47.059Z,5.19
2022-12-12T01:12:40.442Z,5.38
2022-12-12T01:17:37.859Z,4.95
2022-12-12T01:22:32.582Z,4.61
2022-12-12T01:27:25.881Z,3.96
2022-12-12T01:32:19.482Z,4.29
2022-12-12T01:37:12.659Z,4.40
2022-12-12T01:42:16.196Z,5.29
2022-12-12T01:47:09.603Z,4.43
2022-12-12T01:52:08.607Z,3.80
2022-12-12T01:57:11.604Z,5.17
2022-12-12T02:02:08.244Z,5.16
2022-12-12T02:07:04.624Z,3.79
2022-12-12T02:11:59.435Z,5.11
2022-12-12T02:17:17.494Z,3.79
2022-12-12T02:22:25.168Z,5.02
2022-12-12T02:27:47.408Z,5.08
2022-12-12T02:33:19.540Z,4.44
2022-12-12T02:38:23.691Z,3.80
2022-12-12T02:43:26.815Z,3.61
2022-12-12T02:48:36.600Z,4.69
2022-12-12T02:53:30.161Z,3.77
2022-12-12T02:58:26.563Z,5.19
2022-12-12T03:03:52.406Z,4.82
2022-12-12T03:08:55.102Z,4.78
2022-12-12T03:13:53.887Z,5.24
2022-12-12T03:18:57.937Z,4.73
2022-12-12T03:23:55.996Z,4.60
2022-12-12T03:28:54.044Z,3.89
2022-12-12T03:33:50.237Z,3.99
2022-12-12T03:38:57.185Z,3.99
2022-12-12T03:43:56.598Z,3.85
2022-12-12T03:48:56.269Z,5.19
2022-12-12T03:53:58.555Z,4.67
2022-12-12T03:58:56.396Z,3.77
2022-12-12T04:03:56.869Z,4.39
2022-12-12T04:09:09.700Z,5.18
2022-12-12T04:14:13.398Z,4.72
2022-12-12T04:19:14.499Z,5.14
2022-12-12T04:24:19.763Z,4.49
2022-12-12T04:29:39.411Z,4.96
2022-12-12T04:34:40.092Z,4.71
2022-12-12T04:39:39.807Z,4.04
2022-12-12T04:44:36.441Z,5.42
2022-12-12T04:49:35.077Z,5.55
2022-12-12T04:54:36.917Z,5.32
2022-12-12T04:59:34.731Z,5.27
2022-12-12T05:04:32.505Z,5.01
2022-12-12T05:09:26.796Z,5.45
2022-12-12T05:14:21.398Z,5.40
2022-12-12T05:19:20.812Z,5.32
2022-12-12T05:24:14.411Z,3.79
2022-12-12T05:29:11.014Z,5.29
2022-12-12T05:34:04.734Z,4.76
2022-12-12T05:38:59.455Z,3.92
2022-12-12T05:43:53.442Z,4.63
2022-12-12T05:48:50.740Z,5.30
2022-12-12T05:53:44.058Z,5.30
2022-12-12T05:58:38.648Z,5.10
2022-12-12T06:03:32.121Z,5.31
2022-12-12T06:08:27.574Z,3.89
2022-12-12T06:13:20.943Z,5.26
2022-12-12T06:18:17.620Z,4.99
2022-12-12T06:23:11.048Z,4.67
2022-12-12T06:28:04.385Z,4.52
2022-12-12T06:32:57.849Z,5.18
2022-12-12T06:37:52.675Z,4.91
2022-12-12T06:42:49.101Z,5.18
2022-12-12T06:47:44.768Z,5.18
2022-12-12T06:52:38.175Z,5.19
2022-12-12T06:57:33.221Z,5.12
2022-12-12T07:02:30.052Z,5.00
2022-12-12T07:07:23.715Z,4.21
2022-12-12T07:12:16.970Z,4.63
2022-12-12T07:17:11.623Z,5.14
2022-12-12T07:22:10.154Z,4.86
2022-12-12T07:27:04.479Z,4.29
2022-12-12T07:31:58.046Z,4.42
2022-12-12T07:36:55.441Z,5.85
2022-12-12T07:41:54.548Z,5.50
2022-12-12T07:46:48.011Z,5.24
2022-12-12T07:51:47.173Z,5.33
2022-12-12T07:56:43.760Z,5.84
2022-12-12T08:01:37.354Z,6.24
2022-12-12T08:06:30.752Z,5.02
2022-12-12T08:11:25.718Z,4.91
2022-12-12T08:16:25.100Z,6.32
2022-12-12T08:21:25.228Z,5.10
2022-12-12T08:26:22.982Z,6.43
2022-12-12T08:31:25.333Z,6.01
2022-12-12T08:36:32.172Z,4.77
2022-12-12T08:41:31.835Z,5.13
2022-12-12T08:46:30.486Z,6.44
2022-12-12T08:51:41.283Z,5.20
2022-12-12T08:56:37.121Z,5.10
2022-12-12T09:01:30.751Z,5.65
2022-12-12T09:06:46.399Z,5.62
2022-12-12T09:11:40.001Z,7.53
2022-12-12T09:16:59.556Z,6.72
2022-12-12T09:21:57.259Z,8.64
2022-12-12T09:26:50.908Z,7.48
2022-12-12T09:31:47.596Z,8.01
2022-12-12T09:36:43.746Z,7.94
2022-12-12T09:41:43.979Z,8.78
2022-12-12T09:46:41.221Z,7.62
2022-12-12T09:51:47.779Z,8.86
2022-12-12T09:57:15.979Z,7.71
2022-12-12T10:03:04.061Z,7.66
2022-12-12T10:08:04.887Z,8.20
2022-12-12T10:13:19.645Z,8.06
2022-12-12T10:18:18.766Z,8.00
2022-12-12T10:23:30.276Z,8.82
2022-12-12T10:28:32.352Z,8.32
2022-12-12T10:33:34.786Z,8.37
2022-12-12T10:38:45.417Z,9.05
2022-12-12T10:43:56.338Z,9.50
2022-12-12T10:48:57.375Z,10.37
2022-12-12T10:53:59.235Z,10.48
2022-12-12T10:59:03.582Z,10.68
2022-12-12T11:04:06.541Z,10.77
2022-12-12T11:09:11.526Z,10.52
2022-12-12T11:14:26.914Z,9.94
2022-12-12T11:19:27.537Z,9.88
2022-12-12T11:24:31.183Z,9.44
2022-12-12T11:29:39.300Z,10.03
2022-12-12T11:34:46.411Z,10.68
2022-12-12T11:39:47.162Z,10.54
2022-12-12T11:44:42.586Z,10.13
2022-12-12T11:49:49.680Z,9.29
2022-12-12T11:54:49.199Z,8.13
2022-12-12T11:59:58.468Z,8.94
2022-12-12T12:05:06.579Z,7.93
2022-12-12T12:10:13.083Z,8.72
2022-12-12T12:15:27.995Z,8.78
2022-12-12T12:20:34.011Z,9.42
2022-12-12T12:25:54.662Z,9.13
2022-12-12T12:31:01.063Z,8.09
2022-12-12T12:36:19.258Z,8.87
2022-12-12T12:41:37.282Z,9.24
2022-12-12T12:46:48.395Z,8.01
2022-12-12T12:51:56.124Z,7.81
2022-12-12T12:56:59.986Z,8.77
2022-12-12T13:02:03.093Z,7.99
2022-12-12T13:07:02.999Z,8.89
2022-12-12T13:12:04.209Z,8.67
2022-12-12T13:17:06.900Z,8.96
2022-12-12T13:22:16.699Z,8.53
2022-12-12T13:27:16.459Z,7.49
2022-12-12T13:32:42.241Z,8.88
2022-12-12T13:37:52.078Z,8.83
2022-12-12T13:43:07.433Z,8.15
2022-12-12T13:48:44.476Z,8.42
2022-12-12T13:53:40.021Z,8.03
2022-12-12T13:58:36.035Z,8.43
2022-12-12T14:03:36.032Z,8.36
2022-12-12T14:08:33.618Z,7.30
2022-12-12T14:13:43.518Z,8.13
2022-12-12T14:23:51.775Z,7.17
2022-12-12T14:28:52.123Z,6.78
2022-12-12T14:34:27.093Z,8.34
2022-12-12T14:39:37.662Z,8.16
2022-12-12T14:44:39.089Z,8.19
2022-12-12T14:49:35.627Z,7.33
2022-12-12T14:54:39.042Z,6.93
2022-12-12T14:59:39.799Z,7.67
2022-12-12T15:04:53.374Z,7.95
2022-12-12T15:09:52.193Z,7.93
2022-12-12T15:14:56.487Z,6.52
2022-12-12T15:20:09.693Z,6.43
2022-12-12T15:25:15.907Z,6.58
2022-12-12T15:30:27.335Z,7.85
2022-12-12T15:35:25.193Z,6.54
2022-12-12T15:40:25.936Z,7.66
2022-12-12T15:45:23.611Z,6.24
2022-12-12T15:50:19.917Z,7.32
2022-12-12T15:55:24.814Z,6.56
2022-12-12T16:00:32.308Z,7.57
2022-12-12T16:05:33.973Z,7.09
2022-12-12T16:10:29.091Z,7.14
2022-12-12T16:15:39.527Z,7.65
2022-12-12T16:20:36.453Z,7.00
2022-12-12T16:25:32.806Z,6.76
2022-12-12T16:30:44.184Z,7.13
2022-12-12T16:35:45.067Z,7.56
2022-12-12T16:40:51.071Z,6.75
2022-12-12T16:45:47.114Z,7.02
2022-12-12T16:50:44.700Z,7.54
2022-12-12T16:55:44.677Z,6.73
2022-12-12T17:00:51.579Z,5.74
2022-12-12T17:06:03.019Z,5.82
2022-12-12T17:11:10.430Z,6.46
2022-12-12T17:16:11.313Z,5.94
2022-12-12T17:21:30.493Z,5.39
2022-12-12T17:26:25.243Z,5.17
2022-12-12T17:31:40.826Z,5.96
2022-12-12T17:36:51.767Z,5.37
2022-12-12T17:47:53.891Z,5.03
2022-12-12T17:53:16.650Z,5.22
2022-12-12T17:58:29.803Z,4.28
2022-12-12T18:03:28.198Z,3.74
2022-12-12T18:08:32.898Z,4.90
2022-12-12T18:13:35.657Z,3.84
2022-12-12T18:18:34.510Z,3.60
2022-12-12T18:23:28.124Z,5.17
2022-12-12T18:28:29.690Z,4.04
2022-12-12T18:33:39.902Z,5.02
2022-12-12T18:38:45.764Z,3.61
2022-12-12T18:43:48.021Z,3.74
2022-12-12T18:48:42.915Z,4.23
2022-12-12T18:53:38.904Z,5.00
2022-12-12T18:58:44.252Z,3.89
2022-12-12T19:03:44.450Z,4.77
2022-12-12T19:08:42.800Z,4.75
2022-12-12T19:13:46.859Z,3.38
2022-12-12T19:18:46.355Z,4.23
2022-12-12T19:23:46.729Z,4.30
2022-12-12T19:28:40.216Z,3.40
2022-12-12T19:33:35.416Z,4.16
2022-12-12T19:38:28.942Z,3.12
2022-12-12T19:43:26.489Z,2.95
2022-12-12T19:48:19.894Z,4.31
2022-12-12T19:53:14.227Z,2.99
2022-12-12T19:58:13.501Z,2.53
2022-12-12T20:03:16.353Z,2.95
2022-12-12T20:08:09.874Z,2.34
2022-12-12T20:13:06.936Z,4.11
2022-12-12T20:18:14.880Z,2.62
2022-12-12T20:23:14.538Z,3.24
2022-12-12T20:28:09.245Z,3.10
2022-12-12T20:33:31.608Z,3.61
2022-12-12T20:38:31.165Z,3.38
2022-12-12T20:43:44.629Z,3.71
2022-12-12T20:48:44.868Z,3.07
2022-12-12T20:53:54.977Z,2.56
2022-12-12T20:58:54.450Z,2.81
2022-12-12T21:09:44.774Z,1.48
2022-12-12T21:14:38.227Z,2.43
2022-12-12T21:47:07.320Z,0.99
2022-12-12T21:58:33.096Z,2.66
2022-12-12T22:03:52.610Z,1.87
2022-12-12T22:09:26.557Z,1.68
2022-12-12T22:14:47.476Z,1.97
2022-12-12T22:20:28.579Z,2.43
2022-12-12T22:26:03.872Z,1.14
2022-12-12T22:31:34.193Z,2.32
2022-12-12T22:37:20.866Z,0.48
2022-12-12T22:42:47.788Z,0.25
2022-12-12T22:47:45.812Z,1.62
2022-12-12T22:52:39.374Z,0.78
2022-12-12T22:57:39.367Z,1.14
2022-12-12T23:02:37.732Z,0.93
2022-12-12T23:07:33.051Z,2.08
2022-12-12T23:12:34.175Z,1.97
2022-12-12T23:17:29.040Z,1.72
2022-12-12T23:22:22.669Z,2.09
2022-12-12T23:27:16.158Z,1.28
2022-12-12T23:32:09.775Z,0.72
2022-12-12T23:37:04.588Z,2.18
2022-12-12T23:41:59.243Z,1.44
2022-12-12T23:46:52.847Z,2.14
2022-12-12T23:51:48.716Z,1.98
2022-12-12T23:56:44.188Z,1.70
